Main page
METAR-TAF:

METAR-TAF

Airports :

Baghdad International Airport

Baghdad, Iraq

latitude: 33-15-45N, longitude: 44-14-04E, elevation: 35 m

Current weather observation

The report was made 33 minutes ago, at 21:30 UTC
Wind 4 kt from the North/Northeast, varying between North/Northwest and East
Temperature 13°C
Humidity 82%
Pressure 1018 hPa
Visibility: 4900 m
Broken clouds at a height of 3000 ft
light rain showers, mist

METAR: ORBI 102130Z 02004KT 330V080 4900 -SHRA BR BKN030 13/10 Q1018

Time: 01:03 (22:03 UTC)

Forecast

The report was made 6 hours and 3 minutes ago, at 16:00 UTC
Forecast valid from 10 at 18 UTC to 11 at 18 UTC
Wind 6 kt from the Southeast
Visibility: 8000 m
Few clouds at a height of 3000 ft
Scattered clouds at a height of 6000 ft
Temporary
from 10 at 20 UTC to 11 at 02 UTC
light rain

TAF: ORBI 101600Z 1018/1118 14006KT 8000 FEW030 SCT060 TEMPO 1020/1102 -RA

Weather observations and forecasts of more than 4000 airports (METAR and TAF reports).

The available stations are represented by yellow and red dots on the map.

Hover mouse over dot to see the name of the station.

Then click to see weather observations and forecasts.

To change the map : click on the green buttons with a black cross to zoom in, on the green button with a dash to zoom out, or on the green arrows for adjacent maps.


METAR-TAF: